Time;durP1;ratioP1;P1;durP2;ratioP2;P2;SDS_P1;SDS_P2;PMS_P1;PMS_P2;Temp;Humidity;BMP_temperature;BMP_pressure;BME280_temperature;BME280_humidity;BME280_pressure;Samples;Min_cycle;Max_cycle;Signal;HPM_P1;HPM_P2
2024/01/03 00:00:40;;;;;;;0.10;0.10;;;;;;;9.88;100.00;97060.53;5051186;28;20021;-58
2024/01/03 00:03:06;;;;;;;0.30;0.20;;;;;;;9.92;100.00;97054.66;5045402;28;20032;-58
2024/01/03 00:05:39;;;;;;;0.65;0.10;;;;;;;9.90;100.00;97062.97;5060249;28;20024;-55
2024/01/03 00:08:08;;;;;;;0.17;0.00;;;;;;;9.91;100.00;97061.13;5046527;28;20526;-57
2024/01/03 00:10:41;;;;;;;0.57;0.10;;;;;;;9.98;100.00;97059.06;5058746;28;20035;-58
2024/01/03 00:13:30;;;;;;;0.20;0.10;;;;;;;9.95;100.00;97063.06;5060793;28;20085;-58
2024/01/03 00:15:58;;;;;;;;;;;;;;;9.95;100.00;97054.97;5056993;28;20400;-57
2024/01/03 00:18:45;;;;;;;0.15;0.10;;;;;;;9.94;100.00;97055.22;5074521;28;20384;-57
2024/01/03 00:21:12;;;;;;;0.00;0.00;;;;;;;9.96;100.00;97063.94;5059401;28;20036;-57
2024/01/03 00:23:44;;;;;;;0.20;0.10;;;;;;;9.83;100.00;97082.06;5044445;28;20017;-57
2024/01/03 00:26:10;;;;;;;0.45;0.17;;;;;;;9.72;100.00;97076.69;5050292;28;20024;-57
2024/01/03 00:28:36;;;;;;;1.83;0.10;;;;;;;9.59;100.00;97073.22;5067725;28;20039;-58
2024/01/03 00:31:02;;;;;;;0.60;0.10;;;;;;;9.48;100.00;97052.44;5054032;28;20029;-58
2024/01/03 00:33:27;;;;;;;0.52;0.10;;;;;;;9.61;100.00;97052.19;5053432;28;20040;-57
2024/01/03 00:35:53;;;;;;;2.38;0.30;;;;;;;9.52;100.00;97058.22;5070124;28;20365;-58
2024/01/03 00:38:18;;;;;;;0.30;0.10;;;;;;;9.42;100.00;97059.63;5049723;28;20037;-58
2024/01/03 00:40:54;;;;;;;1.77;0.30;;;;;;;9.36;100.00;97057.91;5059688;28;20032;-57
2024/01/03 00:43:20;;;;;;;0.93;0.20;;;;;;;9.43;100.00;97050.50;5066891;28;20531;-57
2024/01/03 00:45:48;;;;;;;1.17;0.20;;;;;;;9.44;100.00;97037.81;5056640;28;20108;-57
2024/01/03 00:48:15;;;;;;;0.30;0.13;;;;;;;9.40;100.00;97050.13;5045489;28;20494;-58
2024/01/03 00:50:40;;;;;;;2.28;0.35;;;;;;;9.49;100.00;97039.81;5054128;28;20102;-57
2024/01/03 00:53:06;;;;;;;3.40;0.30;;;;;;;9.53;100.00;97057.13;5059125;28;20476;-57
2024/01/03 00:55:35;;;;;;;1.98;0.30;;;;;;;9.52;100.00;97053.63;5072498;28;20027;-57
2024/01/03 00:58:00;;;;;;;0.45;0.20;;;;;;;9.54;100.00;97061.50;5042246;28;20033;-57
2024/01/03 01:00:26;;;;;;;1.02;0.38;;;;;;;9.50;100.00;97074.63;5048589;28;20025;-58
2024/01/03 01:02:52;;;;;;;1.17;0.30;;;;;;;9.52;100.00;97072.53;5050895;28;20415;-58
2024/01/03 01:05:17;;;;;;;3.08;0.20;;;;;;;9.51;100.00;97083.56;5072946;28;20079;-57
2024/01/03 01:07:44;;;;;;;2.03;0.57;;;;;;;9.44;100.00;97081.00;5070506;28;20093;-59
2024/01/03 01:10:09;;;;;;;6.45;0.50;;;;;;;9.44;100.00;97078.31;5072326;28;20502;-58
2024/01/03 01:12:34;;;;;;;2.63;0.20;;;;;;;9.66;100.00;97083.88;5051165;28;20021;-52
2024/01/03 01:15:00;;;;;;;1.10;0.43;;;;;;;9.80;100.00;97090.63;5047500;28;20029;-52
2024/01/03 01:17:26;;;;;;;3.50;0.65;;;;;;;9.89;100.00;97091.06;5061859;28;20024;-51
2024/01/03 01:19:51;;;;;;;1.73;0.30;;;;;;;10.00;100.00;97070.47;5062374;28;20184;-52
2024/01/03 01:22:17;;;;;;;0.70;0.28;;;;;;;10.10;100.00;97084.97;5069599;28;20020;-52
2024/01/03 01:24:43;;;;;;;1.58;0.38;;;;;;;10.13;100.00;97097.19;5070037;28;20414;-52
2024/01/03 01:27:08;;;;;;;3.30;0.32;;;;;;;10.13;100.00;97083.66;5058780;28;20495;-51
2024/01/03 01:29:33;;;;;;;3.20;0.47;;;;;;;10.15;100.00;97083.44;5060841;28;20082;-51
2024/01/03 01:31:59;;;;;;;3.17;0.47;;;;;;;10.22;100.00;97074.13;5063592;28;20039;-51
2024/01/03 01:34:24;;;;;;;2.47;0.32;;;;;;;10.28;100.00;97083.97;5073269;28;20020;-51
2024/01/03 01:36:50;;;;;;;3.00;0.50;;;;;;;10.36;100.00;97090.06;5060397;28;20083;-52
2024/01/03 01:39:17;;;;;;;3.28;0.50;;;;;;;10.33;100.00;97101.38;5061023;28;20045;-50
2024/01/03 01:41:42;;;;;;;4.47;0.40;;;;;;;10.35;100.00;97093.81;5064164;28;20025;-51
2024/01/03 01:44:07;;;;;;;2.58;0.65;;;;;;;10.38;100.00;97087.94;5073425;28;20021;-52
2024/01/03 01:46:36;;;;;;;1.60;0.30;;;;;;;10.38;100.00;97083.34;5066495;28;20036;-52
2024/01/03 01:49:03;;;;;;;3.13;0.40;;;;;;;10.43;100.00;97083.44;5067202;28;20467;-52
2024/01/03 01:51:30;;;;;;;3.47;0.68;;;;;;;10.34;100.00;97059.75;5048237;28;20291;-50
2024/01/03 01:53:56;;;;;;;5.18;0.52;;;;;;;10.23;100.00;97066.81;5065648;28;20028;-51
2024/01/03 01:56:21;;;;;;;1.77;0.30;;;;;;;10.19;100.00;97079.19;5052548;28;20041;-51
2024/01/03 01:58:49;;;;;;;2.33;0.32;;;;;;;10.21;100.00;97093.28;5063095;28;20063;-51
2024/01/03 02:01:17;;;;;;;1.60;0.38;;;;;;;10.12;100.00;97095.56;5059575;28;20032;-51
2024/01/03 02:03:43;;;;;;;1.77;0.43;;;;;;;10.09;100.00;97085.25;5044287;28;20032;-52
2024/01/03 02:06:09;;;;;;;1.92;0.43;;;;;;;10.12;100.00;97100.97;5062037;28;20120;-51
2024/01/03 02:08:35;;;;;;;1.65;0.30;;;;;;;10.04;100.00;97098.66;5053062;28;20539;-51
2024/01/03 02:11:01;;;;;;;7.22;0.95;;;;;;;10.08;100.00;97111.41;5066317;28;20476;-57
2024/01/03 02:13:26;;;;;;;2.65;0.50;;;;;;;10.12;100.00;97106.38;5056068;28;20393;-57
2024/01/03 02:15:53;;;;;;;2.00;0.30;;;;;;;10.10;100.00;97112.00;5047595;28;20025;-57
2024/01/03 02:18:19;;;;;;;1.95;0.63;;;;;;;10.05;100.00;97101.09;5060133;28;20357;-57
2024/01/03 02:20:46;;;;;;;4.50;0.30;;;;;;;9.93;100.00;97092.25;5063443;28;20021;-50
2024/01/03 02:23:12;;;;;;;4.18;0.50;;;;;;;9.87;100.00;97101.28;5045934;28;20530;-52
2024/01/03 02:25:37;;;;;;;4.00;0.45;;;;;;;9.90;100.00;97097.28;5053430;28;20029;-51
2024/01/03 02:28:08;;;;;;;2.00;0.52;;;;;;;9.91;100.00;97101.66;5061900;28;20055;-51
2024/01/03 02:30:34;;;;;;;1.65;0.50;;;;;;;9.90;100.00;97103.50;5056961;28;20368;-51
2024/01/03 02:32:59;;;;;;;3.78;0.50;;;;;;;9.79;100.00;97097.09;5058768;28;20033;-57
2024/01/03 02:35:24;;;;;;;2.63;0.68;;;;;;;9.75;100.00;97104.03;5037462;28;20040;-57
2024/01/03 02:37:50;;;;;;;2.05;0.40;;;;;;;9.74;100.00;97115.88;5050274;28;20032;-56
2024/01/03 02:40:15;;;;;;;1.90;0.38;;;;;;;9.60;100.00;97115.34;5052168;28;20037;-56
2024/01/03 02:42:41;;;;;;;1.98;0.50;;;;;;;9.60;100.00;97109.94;5066065;28;20520;-56
2024/01/03 02:45:07;;;;;;;1.98;0.50;;;;;;;9.58;100.00;97117.47;5037007;28;20032;-56
2024/01/03 02:47:32;;;;;;;3.60;0.50;;;;;;;9.57;100.00;97120.41;5058606;28;20039;-57
2024/01/03 02:49:58;;;;;;;2.15;0.40;;;;;;;9.58;100.00;97113.94;5059648;28;20025;-57
2024/01/03 02:52:25;;;;;;;1.52;0.25;;;;;;;9.62;100.00;97121.34;5049606;28;20030;-57
2024/01/03 02:54:51;;;;;;;2.03;0.30;;;;;;;9.68;100.00;97124.97;5072715;28;20016;-57
2024/01/03 02:57:16;;;;;;;2.72;0.38;;;;;;;9.64;100.00;97119.22;5062273;28;20035;-57
2024/01/03 02:59:41;;;;;;;3.47;0.60;;;;;;;9.56;100.00;97121.44;5051323;28;20028;-57
2024/01/03 03:02:07;;;;;;;1.55;0.30;;;;;;;9.49;100.00;97124.31;5057449;28;20074;-57
2024/01/03 03:04:32;;;;;;;0.80;0.20;;;;;;;9.40;100.00;97123.81;5067801;28;20036;-56
2024/01/03 03:06:58;;;;;;;3.22;0.68;;;;;;;9.30;100.00;97123.63;5049317;28;20086;-57
2024/01/03 03:09:23;;;;;;;3.22;0.50;;;;;;;9.24;100.00;97129.94;5060350;28;20441;-57
2024/01/03 03:11:49;;;;;;;1.50;0.40;;;;;;;9.17;100.00;97142.75;5055790;28;20043;-57
2024/01/03 03:14:15;;;;;;;1.73;0.60;;;;;;;9.16;100.00;97136.53;5067508;28;20020;-56
2024/01/03 03:16:40;;;;;;;2.50;0.30;;;;;;;9.09;100.00;97121.50;5081294;22;20055;-78
2024/01/03 03:19:06;;;;;;;1.83;0.30;;;;;;;9.03;100.00;97127.84;5039207;28;20457;-79
2024/01/03 03:21:31;;;;;;;2.65;0.30;;;;;;;8.91;100.00;97115.19;5040185;28;20086;-79
2024/01/03 03:23:56;;;;;;;0.98;0.13;;;;;;;8.86;100.00;97111.56;5046465;28;20044;-80
2024/01/03 03:26:22;;;;;;;2.28;0.30;;;;;;;8.91;100.00;97104.41;5055309;28;20029;-78
2024/01/03 03:28:47;;;;;;;1.70;0.60;;;;;;;8.99;100.00;97116.72;5053788;28;20063;-76
2024/01/03 03:31:12;;;;;;;2.28;0.40;;;;;;;9.02;100.00;97112.75;5050514;28;20068;-76
2024/01/03 03:33:38;;;;;;;3.30;0.45;;;;;;;8.85;100.00;97112.59;5035586;28;20025;-76
2024/01/03 03:36:14;;;;;;;2.00;0.30;;;;;;;8.86;100.00;97119.66;5045912;28;20021;-78
2024/01/03 03:38:39;;;;;;;0.20;0.10;;;;;;;8.80;100.00;97116.00;5042190;28;20017;-77
2024/01/03 03:41:12;;;;;;;1.92;0.20;;;;;;;8.91;100.00;97117.91;5040617;28;20025;-77
2024/01/03 03:43:39;;;;;;;1.30;0.20;;;;;;;8.88;100.00;97112.97;5053278;28;20019;-77
2024/01/03 03:46:07;;;;;;;0.57;0.20;;;;;;;8.94;100.00;97106.63;5036853;28;20047;-77
2024/01/03 03:48:33;;;;;;;0.68;0.35;;;;;;;9.04;100.00;97124.94;5047883;28;20051;-77
2024/01/03 03:51:00;;;;;;;2.95;0.32;;;;;;;9.03;100.00;97119.75;5046252;28;20493;-77
2024/01/03 03:53:25;;;;;;;5.10;0.30;;;;;;;8.93;100.00;97106.84;5051920;28;20035;-77
2024/01/03 03:55:50;;;;;;;3.72;0.30;;;;;;;8.96;100.00;97126.09;5057252;28;20111;-77
2024/01/03 03:58:16;;;;;;;1.58;0.50;;;;;;;9.09;100.00;97118.81;5041312;28;20021;-77
2024/01/03 04:00:41;;;;;;;1.40;0.30;;;;;;;8.94;100.00;97100.41;5050314;28;20046;-78
2024/01/03 04:03:08;;;;;;;1.90;0.28;;;;;;;8.84;100.00;97111.78;5051093;28;20607;-77
2024/01/03 04:05:37;;;;;;;0.65;0.28;;;;;;;8.94;100.00;97148.97;5054629;28;20454;-77
2024/01/03 04:08:03;;;;;;;1.63;0.50;;;;;;;8.85;100.00;97139.56;5062425;28;20029;-77
2024/01/03 04:10:29;;;;;;;0.20;0.10;;;;;;;8.75;100.00;97124.81;5048559;28;20025;-77
2024/01/03 04:12:55;;;;;;;1.05;0.28;;;;;;;8.66;100.00;97125.38;5052843;28;20036;-77
2024/01/03 04:15:21;;;;;;;0.52;0.30;;;;;;;8.72;100.00;97127.97;5052750;28;20028;-77
2024/01/03 04:17:46;;;;;;;0.77;0.20;;;;;;;8.58;100.00;97117.63;5042336;28;20052;-77
2024/01/03 04:20:12;;;;;;;1.95;0.20;;;;;;;8.61;100.00;97146.81;5036742;28;20017;-79
2024/01/03 04:22:42;;;;;;;2.53;0.30;;;;;;;8.86;100.00;97147.44;5034308;28;20024;-80
2024/01/03 04:25:08;;;;;;;0.38;0.10;;;;;;;8.89;100.00;97146.97;5038417;28;20123;-78
2024/01/03 04:27:33;;;;;;;2.05;0.32;;;;;;;8.86;100.00;97149.31;5038827;28;20016;-79
2024/01/03 04:29:58;;;;;;;1.33;0.30;;;;;;;8.84;100.00;97132.53;5049072;28;20474;-79
2024/01/03 04:32:24;;;;;;;3.28;0.30;;;;;;;8.94;100.00;97143.56;5042370;28;20117;-77
2024/01/03 04:38:37;;;;;;;2.55;0.50;;;;;;;9.40;100.00;97126.53;5050413;28;20042;-80
2024/01/03 04:41:27;;;;;;;4.97;0.35;;;;;;;9.36;100.00;97135.34;5021358;28;20108;-80
2024/01/03 04:44:34;;;;;;;6.07;0.77;;;;;;;9.89;100.00;97139.69;5000625;28;20045;-80
2024/01/03 04:47:27;;;;;;;4.90;0.50;;;;;;;9.87;100.00;97149.91;4975445;28;20049;-81
2024/01/03 04:49:54;;;;;;;10.95;1.42;;;;;;;9.76;100.00;97119.19;5004532;28;20035;-82
2024/01/03 04:52:37;;;;;;;7.22;0.73;;;;;;;10.01;100.00;97147.78;4994650;28;20506;-83
2024/01/03 04:55:03;;;;;;;4.10;0.55;;;;;;;9.95;100.00;97132.50;5030877;28;20036;-81
2024/01/03 05:00:36;;;;;;;6.30;0.77;;;;;;;10.05;100.00;97144.31;5062303;23;20049;-64
2024/01/03 05:03:01;;;;;;;3.60;0.57;;;;;;;10.07;100.00;97152.19;5053282;28;20055;-65
2024/01/03 05:05:27;;;;;;;3.53;0.60;;;;;;;10.05;100.00;97149.72;5062472;28;20028;-65
2024/01/03 05:07:54;;;;;;;4.70;0.63;;;;;;;10.12;100.00;97149.59;5074093;28;20043;-65
2024/01/03 05:10:19;;;;;;;3.25;0.40;;;;;;;10.23;100.00;97154.13;5070681;28;20028;-65
2024/01/03 05:12:45;;;;;;;1.15;0.28;;;;;;;10.19;100.00;97141.34;5073288;28;20028;-64
2024/01/03 05:15:11;;;;;;;4.38;0.55;;;;;;;10.07;100.00;97152.19;5073128;28;20024;-65
2024/01/03 05:17:36;;;;;;;4.68;0.60;;;;;;;10.15;100.00;97170.72;5092576;28;20035;-64
2024/01/03 05:20:02;;;;;;;5.90;0.60;;;;;;;10.13;100.00;97170.16;5070643;28;20039;-64
2024/01/03 05:22:27;;;;;;;3.15;0.57;;;;;;;10.04;100.00;97175.13;5072241;28;20384;-64
2024/01/03 05:24:56;;;;;;;3.10;0.60;;;;;;;9.91;100.00;97180.81;5076616;28;20039;-64
2024/01/03 05:27:21;;;;;;;2.78;0.43;;;;;;;9.78;100.00;97168.38;5072896;28;20521;-64
2024/01/03 05:29:48;;;;;;;9.30;0.77;;;;;;;9.65;100.00;97168.63;5072407;28;20040;-65
2024/01/03 05:32:13;;;;;;;3.17;0.63;;;;;;;9.50;100.00;97165.59;5062653;28;20021;-65
2024/01/03 05:34:39;;;;;;;4.53;0.80;;;;;;;9.32;100.00;97171.94;5072111;28;20031;-64
2024/01/03 05:37:04;;;;;;;3.28;0.40;;;;;;;9.17;100.00;97164.34;5071408;28;20028;-64
2024/01/03 05:39:31;;;;;;;7.85;0.93;;;;;;;9.18;100.00;97177.59;5080991;28;20051;-64
2024/01/03 05:41:56;;;;;;;2.88;0.35;;;;;;;9.11;100.00;97176.88;5063133;28;20039;-65
2024/01/03 05:44:22;;;;;;;3.35;0.60;;;;;;;9.02;100.00;97180.19;5071445;28;20020;-66
2024/01/03 05:46:47;;;;;;;4.50;0.70;;;;;;;8.96;100.00;97180.06;5072487;28;20097;-65
2024/01/03 05:49:13;;;;;;;2.67;0.50;;;;;;;8.87;100.00;97186.81;5071526;28;20029;-66
2024/01/03 05:51:38;;;;;;;7.38;0.80;;;;;;;8.97;100.00;97191.66;5066029;28;20024;-65
2024/01/03 05:54:04;;;;;;;6.32;0.80;;;;;;;9.11;100.00;97192.25;5071320;28;20037;-65
2024/01/03 05:56:30;;;;;;;3.88;1.02;;;;;;;9.38;100.00;97179.94;5070159;28;20115;-64
2024/01/03 05:58:55;;;;;;;4.50;0.60;;;;;;;9.51;100.00;97191.53;5067130;28;20147;-64
2024/01/03 06:01:20;;;;;;;9.32;1.50;;;;;;;9.52;100.00;97187.78;5068737;28;20086;-63
2024/01/03 06:03:47;;;;;;;5.80;0.75;;;;;;;9.53;100.00;97197.53;5068947;28;20032;-64
2024/01/03 06:06:12;;;;;;;5.57;0.47;;;;;;;9.52;100.00;97195.91;5072305;28;20028;-63
2024/01/03 06:08:38;;;;;;;3.47;0.60;;;;;;;9.40;100.00;97194.00;5051210;28;20047;-63
2024/01/03 06:11:04;;;;;;;5.72;0.65;;;;;;;9.29;100.00;97202.94;5069409;28;20032;-64
2024/01/03 06:13:30;;;;;;;6.45;0.80;;;;;;;9.52;100.00;97198.59;5083963;28;20071;-64
2024/01/03 06:15:55;;;;;;;6.00;0.77;;;;;;;9.55;100.00;97195.41;5072577;28;20044;-63
2024/01/03 06:18:21;;;;;;;3.83;0.60;;;;;;;9.60;100.00;97195.53;5062927;28;20075;-64
2024/01/03 06:20:47;;;;;;;3.33;0.50;;;;;;;9.68;100.00;97202.44;5049629;28;20048;-63
2024/01/03 06:23:12;;;;;;;2.45;0.43;;;;;;;9.77;100.00;97195.63;5067619;28;20414;-63
2024/01/03 06:25:38;;;;;;;7.43;0.68;;;;;;;9.78;100.00;97191.88;5055831;28;20068;-63
2024/01/03 06:28:04;;;;;;;2.85;0.70;;;;;;;9.83;100.00;97198.19;5057549;28;20051;-63
2024/01/03 06:30:30;;;;;;;7.55;1.05;;;;;;;9.81;100.00;97186.81;5067409;28;20078;-64
2024/01/03 06:32:55;;;;;;;3.92;0.57;;;;;;;9.83;100.00;97178.47;5072365;28;20028;-63
2024/01/03 06:35:20;;;;;;;6.63;0.77;;;;;;;9.90;100.00;97195.34;5063234;28;20046;-64
2024/01/03 06:37:46;;;;;;;4.30;0.60;;;;;;;9.86;100.00;97195.00;5071422;28;20035;-63
2024/01/03 06:40:12;;;;;;;5.03;0.80;;;;;;;9.88;100.00;97202.91;5062682;28;20025;-63
2024/01/03 06:42:37;;;;;;;3.10;0.60;;;;;;;9.78;100.00;97195.38;5069738;28;20473;-63
2024/01/03 06:45:03;;;;;;;7.03;0.75;;;;;;;9.77;100.00;97188.34;5061436;28;20028;-63
2024/01/03 06:47:28;;;;;;;4.22;0.90;;;;;;;9.75;100.00;97190.47;5069360;28;20031;-64
2024/01/03 06:49:54;;;;;;;3.78;0.63;;;;;;;9.76;100.00;97194.78;5061889;28;20044;-63
2024/01/03 06:52:19;;;;;;;3.40;0.50;;;;;;;9.72;100.00;97188.25;5068390;28;20123;-65
2024/01/03 06:54:45;;;;;;;5.30;0.65;;;;;;;9.70;100.00;97194.94;5071991;28;20070;-63
2024/01/03 06:57:10;;;;;;;4.18;0.88;;;;;;;9.76;100.00;97196.69;5058702;28;20051;-64
2024/01/03 06:59:36;;;;;;;4.35;0.55;;;;;;;9.71;100.00;97196.56;5067149;28;20035;-63
2024/01/03 07:02:01;;;;;;;5.35;0.75;;;;;;;9.71;100.00;97189.28;5081439;28;20455;-64
2024/01/03 07:04:27;;;;;;;5.00;0.93;;;;;;;9.68;100.00;97181.66;5068394;28;20052;-64
2024/01/03 07:06:53;;;;;;;4.80;0.70;;;;;;;9.62;100.00;97180.72;5076047;28;20115;-64
2024/01/03 07:09:18;;;;;;;6.32;1.00;;;;;;;9.56;100.00;97189.78;5075809;28;20020;-64
2024/01/03 07:11:43;;;;;;;5.65;0.88;;;;;;;9.49;100.00;97181.00;5073272;28;20028;-64
2024/01/03 07:14:12;;;;;;;6.95;0.70;;;;;;;9.49;100.00;97190.97;5076436;28;20375;-64
2024/01/03 07:16:39;;;;;;;6.75;1.15;;;;;;;9.41;100.00;97187.56;5073903;28;20173;-64
2024/01/03 07:19:04;;;;;;;3.22;0.65;;;;;;;9.39;100.00;97189.66;5075188;28;20021;-63
2024/01/03 07:21:30;;;;;;;3.05;1.55;;;;;;;9.44;100.00;97181.69;5071232;28;20094;-64
2024/01/03 07:23:56;;;;;;;4.18;0.85;;;;;;;9.48;100.00;97187.44;5074076;28;20113;-64
2024/01/03 07:26:21;;;;;;;3.33;0.52;;;;;;;9.49;100.00;97185.56;5076468;28;20023;-63
2024/01/03 07:28:47;;;;;;;1.33;0.40;;;;;;;9.51;100.00;97188.84;5074600;28;20024;-63
2024/01/03 07:31:12;;;;;;;5.70;0.60;;;;;;;9.52;100.00;97198.59;5073693;28;20384;-63
2024/01/03 07:33:40;;;;;;;4.65;0.50;;;;;;;9.43;100.00;97190.84;5066905;28;20077;-64
2024/01/03 07:36:06;;;;;;;1.48;0.35;;;;;;;9.39;100.00;97200.47;5064690;28;20025;-63
2024/01/03 07:38:32;;;;;;;4.85;0.77;;;;;;;9.35;100.00;97207.41;5064949;28;20107;-63
2024/01/03 07:40:59;;;;;;;2.95;0.90;;;;;;;9.30;100.00;97201.91;5074447;28;20035;-63
2024/01/03 07:43:24;;;;;;;2.67;0.50;;;;;;;9.27;100.00;97202.34;5073361;28;20490;-63
2024/01/03 07:45:50;;;;;;;3.50;0.60;;;;;;;9.25;100.00;97204.47;5072423;28;20033;-63
2024/01/03 07:48:16;;;;;;;2.45;0.90;;;;;;;9.28;100.00;97203.19;5072353;28;20012;-63
2024/01/03 07:50:42;;;;;;;3.20;1.05;;;;;;;9.24;100.00;97200.09;5070050;28;20024;-63
2024/01/03 07:53:07;;;;;;;5.07;0.73;;;;;;;9.17;100.00;97208.34;5076131;28;20103;-63
2024/01/03 07:55:33;;;;;;;8.80;2.70;;;;;;;9.09;100.00;97205.97;5079373;28;20044;-63
2024/01/03 07:57:58;;;;;;;8.40;3.30;;;;;;;9.09;100.00;97216.78;5073763;28;20024;-64
2024/01/03 08:00:24;;;;;;;9.38;3.75;;;;;;;9.10;100.00;97212.19;5064366;28;20032;-64
2024/01/03 08:02:49;;;;;;;7.13;2.08;;;;;;;9.08;100.00;97208.91;5074771;28;20415;-64
2024/01/03 08:05:15;;;;;;;2.28;1.00;;;;;;;9.11;100.00;97203.84;5074239;28;20097;-63
2024/01/03 08:07:40;;;;;;;2.92;1.08;;;;;;;9.17;100.00;97200.25;5075166;28;20059;-63
2024/01/03 08:10:06;;;;;;;4.30;1.20;;;;;;;9.20;100.00;97197.06;5073601;28;20553;-64
2024/01/03 08:12:33;;;;;;;3.38;0.63;;;;;;;9.27;100.00;97201.53;5057699;28;20060;-63
2024/01/03 08:14:59;;;;;;;7.35;0.70;;;;;;;9.27;100.00;97186.16;5075141;28;20025;-63
2024/01/03 08:17:26;;;;;;;3.90;0.60;;;;;;;9.33;100.00;97162.81;5073921;28;20024;-63
2024/01/03 08:19:52;;;;;;;6.15;0.60;;;;;;;9.43;100.00;97188.16;5072434;28;20032;-64
2024/01/03 08:22:17;;;;;;;7.43;0.73;;;;;;;9.48;100.00;97178.50;5073571;28;20029;-64
2024/01/03 08:24:43;;;;;;;1.42;0.50;;;;;;;9.52;100.00;97166.19;5073199;28;20028;-63
2024/01/03 08:27:09;;;;;;;2.53;0.52;;;;;;;9.61;100.00;97175.56;5055728;28;20024;-64
2024/01/03 08:29:37;;;;;;;2.38;0.63;;;;;;;9.58;100.00;97171.44;5067207;28;20052;-64
2024/01/03 08:32:03;;;;;;;3.70;0.70;;;;;;;9.59;100.00;97170.41;5069196;28;20075;-63
2024/01/03 08:34:29;;;;;;;3.05;0.38;;;;;;;9.60;100.00;97163.94;5069863;28;20035;-65
2024/01/03 08:36:54;;;;;;;3.25;0.75;;;;;;;9.66;100.00;97165.69;5063709;28;20033;-65
2024/01/03 08:39:20;;;;;;;1.42;0.52;;;;;;;9.71;100.00;97158.75;5069287;28;20067;-63
2024/01/03 08:41:47;;;;;;;2.13;0.43;;;;;;;9.75;100.00;97160.75;5063617;28;20553;-63
2024/01/03 08:44:13;;;;;;;4.93;0.90;;;;;;;9.81;100.00;97153.56;5071883;28;20052;-63
2024/01/03 08:46:40;;;;;;;2.58;0.52;;;;;;;9.83;100.00;97151.47;5066969;28;20061;-64
2024/01/03 08:49:06;;;;;;;3.97;0.93;;;;;;;9.93;100.00;97157.06;5060344;28;20025;-64
2024/01/03 08:51:32;;;;;;;5.22;1.58;;;;;;;9.98;100.00;97157.19;5070170;28;20024;-63
2024/01/03 08:53:58;;;;;;;6.30;1.67;;;;;;;9.93;100.00;97143.56;5063666;28;20545;-64
2024/01/03 08:56:24;;;;;;;6.30;1.05;;;;;;;10.00;100.00;97154.22;5069715;28;20037;-65
2024/01/03 08:58:50;;;;;;;3.40;0.50;;;;;;;10.02;100.00;97155.63;5071188;28;20020;-63
2024/01/03 09:01:19;;;;;;;5.30;0.50;;;;;;;10.15;100.00;97159.94;5064051;28;20029;-64
2024/01/03 09:03:46;;;;;;;3.40;0.50;;;;;;;10.23;100.00;97164.94;5068943;28;20021;-64
2024/01/03 09:06:18;;;;;;;3.50;0.85;;;;;;;10.30;100.00;97162.94;5068202;28;20467;-64
2024/01/03 09:08:46;;;;;;;5.45;0.52;;;;;;;10.36;100.00;97160.34;5065451;28;20044;-64
2024/01/03 09:11:12;;;;;;;5.20;0.40;;;;;;;10.26;100.00;97169.84;5070007;28;20020;-64
2024/01/03 09:13:39;;;;;;;0.70;0.35;;;;;;;10.30;100.00;97157.53;5070687;28;20823;-64
2024/01/03 09:16:09;;;;;;;1.20;0.30;;;;;;;10.34;100.00;97154.34;5065597;28;20033;-64
2024/01/03 09:18:35;;;;;;;3.75;0.52;;;;;;;10.50;100.00;97173.31;5065274;28;20464;-64
2024/01/03 09:21:04;;;;;;;2.90;0.50;;;;;;;10.64;100.00;97159.50;5067787;28;20028;-64
2024/01/03 09:23:30;;;;;;;2.15;0.57;;;;;;;10.87;100.00;97169.34;5053479;28;20023;-63
2024/01/03 09:25:55;;;;;;;4.40;0.32;;;;;;;10.92;100.00;97170.22;5065459;28;20032;-64
2024/01/03 09:28:22;;;;;;;2.70;0.63;;;;;;;10.86;100.00;97175.81;5069804;28;20472;-63
2024/01/03 09:30:47;;;;;;;4.88;0.50;;;;;;;10.78;100.00;97187.03;5068762;28;20029;-63
2024/01/03 09:33:13;;;;;;;2.17;0.30;;;;;;;10.83;100.00;97171.72;5067139;28;20481;-64
2024/01/03 09:35:38;;;;;;;3.28;0.43;;;;;;;11.06;100.00;97169.94;5071747;28;20039;-64
2024/01/03 09:38:05;;;;;;;5.13;0.70;;;;;;;11.10;100.00;97171.88;5068192;28;20059;-63
2024/01/03 09:40:33;;;;;;;1.08;0.20;;;;;;;11.24;100.00;97169.66;5067220;28;20037;-65
2024/01/03 09:43:02;;;;;;;4.30;0.35;;;;;;;11.05;100.00;97168.28;5070205;28;20024;-63
2024/01/03 09:45:28;;;;;;;3.13;0.40;;;;;;;11.01;100.00;97173.38;5068935;28;20032;-64
2024/01/03 09:47:53;;;;;;;4.15;0.40;;;;;;;11.41;100.00;97166.94;5074441;22;20499;-54
2024/01/03 09:50:19;;;;;;;1.95;0.30;;;;;;;11.50;100.00;97170.03;5048760;28;20029;-51
2024/01/03 09:52:45;;;;;;;3.17;0.30;;;;;;;12.09;100.00;97172.19;5053401;28;20021;-51
2024/01/03 09:55:10;;;;;;;2.45;0.52;;;;;;;12.70;100.00;97156.53;5071387;28;20364;-51
2024/01/03 09:57:38;;;;;;;3.63;0.22;;;;;;;12.33;100.00;97173.53;5070821;28;20380;-51
2024/01/03 10:00:05;;;;;;;4.32;0.40;;;;;;;12.27;100.00;97169.13;5063554;28;20032;-51
2024/01/03 10:02:30;;;;;;;3.28;0.40;;;;;;;12.23;100.00;97159.88;5071880;28;20022;-51
2024/01/03 10:04:56;;;;;;;0.82;0.30;;;;;;;12.01;100.00;97155.28;5071218;28;20028;-51
2024/01/03 10:07:35;;;;;;;5.60;0.40;;;;;;;11.61;100.00;97155.56;5080226;28;20020;-51
2024/01/03 10:10:01;;;;;;;0.73;0.28;;;;;;;11.17;100.00;97166.31;5081136;28;20021;-51
2024/01/03 10:12:32;;;;;;;0.82;0.10;;;;;;;10.89;100.00;97194.25;5076251;28;20476;-50
2024/01/03 10:15:15;;;;;;;1.08;0.20;;;;;;;10.60;100.00;97188.91;5062205;28;20116;-50
2024/01/03 10:17:43;;;;;;;3.22;0.30;;;;;;;10.47;100.00;97202.72;5068611;28;20028;-50
2024/01/03 10:20:26;;;;;;;1.63;0.10;;;;;;;10.27;100.00;97217.50;5068447;28;20024;-55
2024/01/03 10:23:10;;;;;;;0.90;0.20;;;;;;;10.11;100.00;97218.19;5072504;28;20027;-50
2024/01/03 10:25:37;;;;;;;0.95;0.20;;;;;;;9.94;100.00;97230.81;5071208;28;20036;-55
2024/01/03 10:28:06;;;;;;;1.17;0.15;;;;;;;9.82;100.00;97241.63;5050841;28;20395;-56
2024/01/03 10:30:32;;;;;;;1.33;0.20;;;;;;;9.69;100.00;97228.38;5052329;28;20430;-51
2024/01/03 10:32:58;;;;;;;1.73;0.20;;;;;;;9.70;100.00;97230.03;5071276;28;20025;-50
2024/01/03 10:35:28;;;;;;;0.55;0.20;;;;;;;9.73;100.00;97238.47;5069684;28;20058;-56
2024/01/03 10:37:55;;;;;;;0.70;0.40;;;;;;;9.87;100.00;97230.94;5072427;28;20050;-56
2024/01/03 10:40:22;;;;;;;0.47;0.15;;;;;;;9.96;100.00;97228.72;5080402;28;20020;-56
2024/01/03 10:42:49;;;;;;;1.05;0.30;;;;;;;10.01;100.00;97240.44;5066227;28;20040;-56
2024/01/03 10:45:16;;;;;;;3.15;0.25;;;;;;;9.98;100.00;97231.97;5066384;28;20028;-52
2024/01/03 10:47:42;;;;;;;1.08;0.15;;;;;;;9.97;100.00;97244.66;5071978;28;20383;-50
2024/01/03 10:50:08;;;;;;;0.75;0.10;;;;;;;9.93;100.00;97235.41;5070201;28;20036;-55
2024/01/03 10:52:37;;;;;;;1.33;0.20;;;;;;;9.80;100.00;97244.59;5069015;28;20035;-55
2024/01/03 10:55:05;;;;;;;1.10;0.20;;;;;;;9.64;100.00;97234.47;5072141;28;20484;-56
2024/01/03 10:57:34;;;;;;;1.55;0.20;;;;;;;9.65;100.00;97236.97;5075007;28;20036;-55
2024/01/03 11:00:30;;;;;;;2.17;0.20;;;;;;;9.81;100.00;97246.22;5079486;28;20538;-52
2024/01/03 11:03:21;;;;;;;0.90;0.13;;;;;;;9.97;100.00;97238.44;5066466;28;20040;-55
2024/01/03 11:06:35;;;;;;;0.30;0.10;;;;;;;9.96;100.00;97234.94;5050310;28;20033;-56
2024/01/03 11:09:02;;;;;;;1.00;0.45;;;;;;;10.06;100.00;97234.31;5048153;28;20488;-55
2024/01/03 11:11:32;;;;;;;0.10;0.10;;;;;;;10.28;100.00;97246.16;5077527;28;20034;-52
2024/01/03 11:13:58;;;;;;;0.77;0.32;;;;;;;11.08;100.00;97227.31;5074217;28;20016;-52
2024/01/03 11:16:36;;;;;;;0.43;0.10;;;;;;;13.61;100.00;97223.56;5079107;28;20471;-52
2024/01/03 11:19:02;;;;;;;1.00;0.20;;;;;;;14.64;100.00;97206.63;5079022;28;20024;-54
2024/01/03 11:21:28;;;;;;;0.73;0.20;;;;;;;15.16;100.00;97217.59;5077224;28;20046;-51
2024/01/03 11:23:54;;;;;;;0.15;0.10;;;;;;;13.78;100.00;97213.34;5064580;28;20066;-51
2024/01/03 11:26:39;;;;;;;1.30;0.28;;;;;;;13.01;100.00;97222.78;5072224;28;20414;-54
2024/01/03 11:29:05;;;;;;;1.27;0.52;;;;;;;12.18;100.00;97206.75;5070976;28;20052;-55
2024/01/03 11:31:58;;;;;;;0.45;0.20;;;;;;;11.71;100.00;97222.59;5070064;28;20551;-55
2024/01/03 11:34:46;;;;;;;1.83;0.60;;;;;;;11.58;100.00;97197.53;5071741;28;20026;-55
2024/01/03 11:37:11;;;;;;;2.17;0.50;;;;;;;11.62;100.00;97219.50;5066954;28;20067;-55
2024/01/03 11:39:42;;;;;;;2.15;0.30;;;;;;;11.64;100.00;97203.81;5071425;28;20040;-56